createdAt,value
2022-12-26T00:02:01.947Z,2.97
2022-12-26T00:07:10.527Z,2.97
2022-12-26T00:12:18.693Z,2.98
2022-12-26T00:17:27.089Z,2.98
2022-12-26T00:22:36.204Z,2.99
2022-12-26T00:27:44.513Z,3.00
2022-12-26T00:32:52.835Z,3.00
2022-12-26T00:38:02.005Z,3.01
2022-12-26T00:43:10.701Z,3.00
2022-12-26T00:48:19.188Z,3.00
2022-12-26T00:53:28.237Z,3.00
2022-12-26T00:58:38.460Z,2.99
2022-12-26T01:03:48.409Z,3.00
2022-12-26T01:08:57.381Z,2.99
2022-12-26T01:14:05.647Z,2.99
2022-12-26T01:19:15.189Z,2.98
2022-12-26T01:24:23.354Z,2.95
2022-12-26T01:29:31.613Z,2.99
2022-12-26T01:34:40.175Z,3.00
2022-12-26T01:39:48.492Z,3.01
2022-12-26T01:45:07.147Z,3.01
2022-12-26T01:50:27.834Z,3.02
2022-12-26T01:55:38.151Z,3.02
2022-12-26T02:00:46.661Z,3.03
2022-12-26T02:05:56.418Z,3.03
2022-12-26T02:11:12.948Z,3.05
2022-12-26T02:16:22.532Z,3.06
2022-12-26T02:22:23.142Z,3.07
2022-12-26T02:27:50.406Z,3.08
2022-12-26T02:33:34.767Z,3.10
2022-12-26T02:38:54.495Z,3.11
2022-12-26T02:44:26.809Z,3.13
2022-12-26T02:49:59.199Z,3.15
2022-12-26T02:55:28.726Z,3.17
2022-12-26T03:00:59.728Z,3.21
2022-12-26T03:06:32.584Z,3.22
2022-12-26T03:12:03.950Z,3.24
2022-12-26T03:17:23.443Z,3.26
2022-12-26T03:22:39.000Z,3.28
2022-12-26T03:27:47.206Z,3.32
2022-12-26T03:32:56.826Z,3.36
2022-12-26T03:38:10.144Z,3.38
2022-12-26T03:43:46.890Z,3.40
2022-12-26T03:49:23.321Z,3.42
2022-12-26T03:54:57.895Z,3.44
2022-12-26T04:00:28.549Z,3.45
2022-12-26T04:05:58.585Z,3.47
2022-12-26T04:11:30.368Z,3.48
2022-12-26T04:17:02.574Z,3.50
2022-12-26T04:22:35.998Z,3.51
2022-12-26T04:28:03.123Z,3.53
2022-12-26T04:33:38.417Z,3.55
2022-12-26T04:39:09.171Z,3.57
2022-12-26T04:44:19.359Z,3.59
2022-12-26T04:49:47.342Z,3.60
2022-12-26T04:54:54.945Z,3.62
2022-12-26T05:00:03.052Z,3.63
2022-12-26T05:05:30.747Z,3.64
2022-12-26T05:10:39.562Z,3.64
2022-12-26T05:16:07.087Z,3.64
2022-12-26T05:21:38.423Z,3.63
2022-12-26T05:27:04.276Z,3.63
2022-12-26T05:32:12.968Z,3.62
2022-12-26T05:37:21.756Z,3.61
2022-12-26T05:42:30.277Z,3.60
2022-12-26T05:47:39.329Z,3.59
2022-12-26T05:52:47.756Z,3.58
2022-12-26T05:57:56.184Z,3.56
2022-12-26T06:03:05.327Z,3.56
2022-12-26T06:08:13.989Z,3.55
2022-12-26T06:13:22.175Z,3.53
2022-12-26T06:18:30.886Z,3.52
2022-12-26T06:23:40.526Z,3.51
2022-12-26T06:28:49.111Z,3.50
2022-12-26T06:34:01.973Z,3.48
2022-12-26T06:39:10.377Z,3.47
2022-12-26T06:44:19.094Z,3.46
2022-12-26T06:49:32.607Z,3.38
2022-12-26T06:54:42.788Z,3.46
2022-12-26T06:59:52.257Z,3.45
2022-12-26T07:05:00.751Z,3.45
2022-12-26T07:10:10.234Z,3.45
2022-12-26T07:15:18.995Z,3.45
2022-12-26T07:20:27.187Z,3.46
2022-12-26T07:25:35.809Z,3.47
2022-12-26T07:30:48.767Z,3.47
2022-12-26T07:36:01.502Z,3.47
2022-12-26T07:41:24.669Z,3.45
2022-12-26T07:46:33.727Z,3.43
2022-12-26T07:51:42.766Z,3.40
2022-12-26T07:56:51.265Z,3.38
2022-12-26T08:02:00.289Z,3.36
2022-12-26T08:07:09.148Z,3.34
2022-12-26T08:12:17.439Z,3.34
2022-12-26T08:17:25.757Z,3.34
2022-12-26T08:22:34.303Z,3.35
2022-12-26T08:27:43.812Z,3.35
2022-12-26T08:32:52.474Z,3.37
2022-12-26T08:38:01.617Z,3.38
2022-12-26T08:43:32.037Z,3.39
2022-12-26T08:48:40.148Z,3.42
2022-12-26T08:53:49.970Z,3.44
2022-12-26T08:58:59.074Z,3.44
2022-12-26T09:04:08.640Z,3.46
2022-12-26T09:09:16.915Z,3.48
2022-12-26T09:14:25.090Z,3.49
2022-12-26T09:19:33.552Z,3.49
2022-12-26T09:24:41.830Z,3.50
2022-12-26T09:29:49.651Z,3.51
2022-12-26T09:34:58.680Z,3.51
2022-12-26T09:40:09.046Z,3.52
2022-12-26T09:45:20.112Z,3.53
2022-12-26T09:50:37.095Z,3.54
2022-12-26T09:55:52.128Z,3.56
2022-12-26T10:01:09.910Z,3.58
2022-12-26T10:06:22.087Z,3.60
2022-12-26T10:11:45.020Z,3.63
2022-12-26T10:17:01.349Z,3.65
2022-12-26T10:22:25.055Z,3.68
2022-12-26T10:27:40.383Z,3.72
2022-12-26T10:32:54.498Z,3.76
2022-12-26T10:38:14.046Z,3.78
2022-12-26T10:43:29.063Z,3.81
2022-12-26T10:48:38.463Z,3.84
2022-12-26T10:53:50.624Z,3.87
2022-12-26T10:59:05.967Z,3.90
2022-12-26T11:04:53.158Z,3.93
2022-12-26T11:09:57.766Z,3.97
2022-12-26T11:15:09.760Z,4.00
2022-12-26T11:20:33.848Z,4.04
2022-12-26T11:25:52.875Z,4.08
2022-12-26T11:31:02.926Z,4.11
2022-12-26T11:36:21.165Z,4.13
2022-12-26T11:41:43.099Z,4.15
2022-12-26T11:46:55.316Z,4.18
2022-12-26T11:52:05.599Z,4.22
2022-12-26T11:57:23.298Z,4.26
2022-12-26T12:02:34.054Z,4.31
2022-12-26T12:07:54.804Z,4.36
2022-12-26T12:13:12.460Z,4.40
2022-12-26T12:18:32.514Z,4.46
2022-12-26T12:23:56.436Z,4.51
2022-12-26T12:29:29.425Z,4.56
2022-12-26T12:34:48.718Z,4.61
2022-12-26T12:40:08.127Z,4.66
2022-12-26T12:45:28.561Z,4.70
2022-12-26T12:50:46.311Z,4.75
2022-12-26T12:56:12.704Z,4.79
2022-12-26T13:01:25.512Z,4.84
2022-12-26T13:06:43.251Z,4.89
2022-12-26T13:11:57.748Z,4.94
2022-12-26T13:17:11.427Z,5.00
2022-12-26T13:22:26.645Z,5.06
2022-12-26T13:27:41.195Z,5.13
2022-12-26T13:32:50.358Z,5.20
2022-12-26T13:38:00.565Z,5.27
2022-12-26T13:43:37.814Z,5.33
2022-12-26T13:49:02.094Z,5.40
2022-12-26T13:54:15.904Z,5.48
2022-12-26T13:59:31.467Z,5.56
2022-12-26T14:04:56.594Z,5.63
2022-12-26T14:10:15.946Z,5.71
2022-12-26T14:15:43.833Z,5.78
2022-12-26T14:21:00.856Z,5.88
2022-12-26T14:26:22.080Z,5.97
2022-12-26T14:31:42.182Z,6.06
2022-12-26T14:36:54.792Z,6.15
2022-12-26T14:42:46.895Z,6.25
2022-12-26T14:47:53.965Z,6.36
2022-12-26T14:53:33.212Z,6.47
2022-12-26T14:58:45.584Z,6.58
2022-12-26T15:03:59.074Z,6.67
2022-12-26T15:09:24.403Z,6.76
2022-12-26T15:15:02.607Z,6.83
2022-12-26T15:20:52.764Z,6.90
2022-12-26T15:26:21.335Z,6.95
2022-12-26T15:31:50.617Z,6.98
2022-12-26T15:37:04.501Z,7.01
2022-12-26T15:42:33.885Z,7.04
2022-12-26T15:47:51.167Z,7.07
2022-12-26T15:53:16.938Z,7.10
2022-12-26T15:58:52.015Z,7.04
2022-12-26T16:04:01.915Z,7.06
2022-12-26T16:09:36.683Z,7.18
2022-12-26T16:14:47.335Z,7.20
2022-12-26T16:19:57.195Z,7.21
2022-12-26T16:25:08.861Z,7.23
2022-12-26T16:30:22.514Z,7.23
2022-12-26T16:35:34.764Z,7.22
2022-12-26T16:40:44.036Z,7.22
2022-12-26T16:45:54.747Z,7.20
2022-12-26T16:51:04.921Z,7.16
2022-12-26T16:56:28.591Z,7.12
2022-12-26T17:01:39.168Z,7.09
2022-12-26T17:06:54.540Z,7.09
2022-12-26T17:12:05.309Z,7.09
2022-12-26T17:17:32.707Z,7.06
2022-12-26T17:22:41.157Z,7.02
2022-12-26T17:27:51.647Z,6.98
2022-12-26T17:33:06.192Z,6.94
2022-12-26T17:38:21.609Z,6.91
2022-12-26T17:43:36.122Z,6.90
2022-12-26T17:48:45.419Z,6.90
2022-12-26T17:53:55.099Z,6.90
2022-12-26T17:59:04.499Z,6.91
2022-12-26T18:04:13.375Z,6.92
2022-12-26T18:09:29.988Z,6.93
2022-12-26T18:14:38.802Z,6.94
2022-12-26T18:19:47.282Z,6.95
2022-12-26T18:24:55.774Z,6.96
2022-12-26T18:30:04.441Z,6.99
2022-12-26T18:35:14.055Z,7.02
2022-12-26T18:40:35.876Z,6.96
2022-12-26T18:45:44.960Z,7.07
2022-12-26T18:50:54.994Z,7.09
2022-12-26T18:56:03.277Z,7.12
2022-12-26T19:01:15.525Z,7.14
2022-12-26T19:06:26.985Z,7.15
2022-12-26T19:11:36.293Z,7.18
2022-12-26T19:16:44.618Z,7.20
2022-12-26T19:21:53.224Z,7.22
2022-12-26T19:27:01.564Z,7.22
2022-12-26T19:32:10.729Z,7.24
2022-12-26T19:37:19.308Z,7.26
2022-12-26T19:42:28.546Z,7.27
2022-12-26T19:47:37.635Z,7.30
2022-12-26T19:52:46.063Z,7.31
2022-12-26T19:57:54.223Z,7.25
2022-12-26T20:03:03.884Z,7.33
2022-12-26T20:08:13.311Z,7.34
2022-12-26T20:13:22.133Z,7.35
2022-12-26T20:18:31.832Z,7.37
2022-12-26T20:23:41.135Z,7.38
2022-12-26T20:28:50.478Z,7.38
2022-12-26T20:33:59.993Z,7.36
2022-12-26T20:39:10.801Z,7.35
2022-12-26T20:44:20.086Z,7.35
2022-12-26T20:49:29.527Z,7.37
2022-12-26T20:54:38.139Z,7.37
2022-12-26T20:59:46.651Z,7.38
2022-12-26T21:04:56.710Z,7.39
2022-12-26T21:10:05.187Z,7.40
2022-12-26T21:15:14.366Z,7.40
2022-12-26T21:20:23.500Z,7.40
2022-12-26T21:25:32.110Z,7.40
2022-12-26T21:30:40.923Z,7.41
2022-12-26T21:35:53.795Z,7.41
2022-12-26T21:41:02.380Z,7.41
2022-12-26T21:46:14.627Z,7.40
2022-12-26T21:51:22.149Z,7.38
2022-12-26T21:56:30.527Z,7.36
2022-12-26T22:01:39.077Z,7.33
2022-12-26T22:06:48.001Z,7.32
2022-12-26T22:12:13.537Z,7.33
2022-12-26T22:17:21.884Z,7.35
2022-12-26T22:22:30.407Z,7.37
2022-12-26T22:27:38.839Z,7.39
2022-12-26T22:32:47.570Z,7.41
2022-12-26T22:37:55.735Z,7.43
2022-12-26T22:43:04.175Z,7.45
2022-12-26T22:48:12.752Z,7.47
2022-12-26T22:53:21.891Z,7.49
2022-12-26T22:58:30.336Z,7.49
2022-12-26T23:03:39.035Z,7.51
2022-12-26T23:08:48.723Z,7.53
2022-12-26T23:13:58.115Z,7.53
2022-12-26T23:19:31.370Z,7.54
2022-12-26T23:24:39.833Z,7.55
2022-12-26T23:30:07.137Z,7.57
2022-12-26T23:35:15.980Z,7.58
2022-12-26T23:40:24.912Z,7.58
2022-12-26T23:45:33.661Z,7.58
2022-12-26T23:50:41.804Z,7.60
2022-12-26T23:55:49.962Z,7.60
